Time;durP1;ratioP1;P1;durP2;ratioP2;P2;SDS_P1;SDS_P2;PMS_P1;PMS_P2;Temp;Humidity;BMP_temperature;BMP_pressure;BME280_temperature;BME280_humidity;BME280_pressure;Samples;Min_cycle;Max_cycle;Signal;HPM_P1;HPM_P2
2022/07/05 00:04:21;;;;;;;1.75;0.70;;;;;;;18.87;51.65;100266.81;10458686;28;20048;-73
2022/07/05 00:09:22;;;;;;;2.67;0.60;;;;;;;19.16;50.67;100267.59;10459596;28;20045;-71
2022/07/05 00:14:24;;;;;;;2.65;0.60;;;;;;;19.06;51.71;100261.16;10457437;28;20037;-72
2022/07/05 00:19:26;;;;;;;1.38;0.60;;;;;;;19.29;50.52;100256.16;10458855;28;20045;-72
2022/07/05 00:24:28;;;;;;;1.25;0.50;;;;;;;19.32;50.62;100256.84;10458999;28;20502;-73
2022/07/05 00:29:29;;;;;;;1.65;0.50;;;;;;;19.04;51.73;100252.44;10457802;28;20041;-72
2022/07/05 00:34:31;;;;;;;0.52;0.50;;;;;;;18.85;52.31;100246.53;10457414;28;20510;-73
2022/07/05 00:39:33;;;;;;;0.50;0.45;;;;;;;19.05;51.99;100246.13;10458566;28;20052;-72
2022/07/05 00:44:41;;;;;;;4.30;0.68;;;;;;;18.94;53.58;100258.41;10458469;28;20454;-73
2022/07/05 00:49:44;;;;;;;1.13;0.70;;;;;;;18.81;54.21;100260.97;10459449;28;20554;-72
2022/07/05 00:54:47;;;;;;;0.73;0.52;;;;;;;18.93;54.09;100248.72;10459061;28;20041;-72
2022/07/05 00:59:50;;;;;;;1.83;0.70;;;;;;;19.16;53.15;100248.97;10458982;28;20055;-73
2022/07/05 01:04:52;;;;;;;1.48;0.75;;;;;;;18.94;53.45;100250.41;10459688;28;20045;-72
2022/07/05 01:09:54;;;;;;;2.65;0.60;;;;;;;19.01;53.72;100243.75;10457621;28;20053;-72
2022/07/05 01:14:57;;;;;;;0.68;0.55;;;;;;;18.80;53.49;100241.50;10457229;28;20052;-71
2022/07/05 01:19:59;;;;;;;1.25;0.70;;;;;;;18.47;54.30;100241.75;10456733;28;20048;-72
2022/07/05 01:25:01;;;;;;;1.00;0.60;;;;;;;18.37;55.46;100243.25;10457815;28;20041;-72
2022/07/05 01:30:03;;;;;;;1.27;0.60;;;;;;;18.49;55.05;100242.50;10464392;28;20048;-72
2022/07/05 01:35:05;;;;;;;0.90;0.68;;;;;;;18.34;56.39;100246.09;10463186;28;20097;-71
2022/07/05 01:40:07;;;;;;;1.73;0.60;;;;;;;18.45;56.13;100248.97;10465165;28;20036;-72
2022/07/05 01:45:09;;;;;;;1.15;0.60;;;;;;;18.23;56.99;100252.06;10464542;28;20043;-72
2022/07/05 01:50:15;;;;;;;2.80;0.95;;;;;;;18.27;56.29;100256.25;10465237;28;20071;-72
2022/07/05 01:55:16;;;;;;;1.90;0.70;;;;;;;18.34;55.61;100256.75;10464858;28;20083;-72
2022/07/05 02:00:18;;;;;;;0.77;0.70;;;;;;;18.22;55.99;100258.34;10464825;28;20044;-72
2022/07/05 02:05:20;;;;;;;1.10;0.65;;;;;;;17.93;56.68;100256.53;10461504;28;20091;-72
2022/07/05 02:10:22;;;;;;;0.63;0.63;;;;;;;17.61;57.92;100252.09;10461510;28;20136;-72
2022/07/05 02:15:24;;;;;;;1.17;0.70;;;;;;;17.59;58.67;100259.31;10464363;28;20036;-72
2022/07/05 02:20:26;;;;;;;2.35;1.00;;;;;;;17.60;58.83;100250.41;10464636;28;20123;-71
2022/07/05 02:25:28;;;;;;;2.80;1.00;;;;;;;17.47;59.16;100252.03;10464815;28;20048;-72
2022/07/05 02:30:32;;;;;;;1.42;0.80;;;;;;;17.31;60.10;100253.84;10463404;28;20095;-72
2022/07/05 02:35:34;;;;;;;2.03;0.70;;;;;;;17.55;59.24;100257.78;10463992;28;20033;-71
2022/07/05 02:40:35;;;;;;;2.05;0.88;;;;;;;17.20;59.97;100251.81;10462195;28;20052;-72
2022/07/05 02:45:39;;;;;;;1.38;0.80;;;;;;;17.00;61.32;100250.25;10462057;28;20045;-72
2022/07/05 02:50:41;;;;;;;2.08;1.00;;;;;;;17.07;60.61;100251.63;10461423;28;20056;-72
2022/07/05 02:55:43;;;;;;;1.80;0.82;;;;;;;17.01;61.92;100248.47;10461778;28;20498;-72
2022/07/05 03:00:47;;;;;;;0.98;0.90;;;;;;;16.98;61.92;100252.13;10460674;28;20056;-72
2022/07/05 03:05:51;;;;;;;1.98;1.25;;;;;;;17.22;60.61;100260.56;10460849;28;20526;-72
2022/07/05 03:10:53;;;;;;;1.27;0.90;;;;;;;17.04;60.53;100265.06;10459494;28;20144;-72
2022/07/05 03:15:56;;;;;;;3.40;1.17;;;;;;;16.88;61.17;100275.69;10459667;28;20110;-72
2022/07/05 03:20:58;;;;;;;1.92;1.15;;;;;;;17.03;60.20;100271.31;10443287;28;20049;-72
2022/07/05 03:26:04;;;;;;;2.40;1.15;;;;;;;17.11;59.49;100277.06;10459907;28;20041;-72
2022/07/05 03:31:06;;;;;;;3.05;1.30;;;;;;;17.11;59.95;100278.88;10459484;28;20052;-72
2022/07/05 03:36:12;;;;;;;;;;;;;;;16.94;61.77;100278.94;10445336;28;20051;-72
2022/07/05 03:41:16;;;;;;;1.38;1.20;;;;;;;16.71;62.58;100275.69;10460212;28;19920;-72
2022/07/05 03:46:18;;;;;;;1.83;1.20;;;;;;;16.68;63.54;100285.59;10459420;28;20136;-72
2022/07/05 03:51:20;;;;;;;1.58;1.20;;;;;;;16.81;63.07;100286.69;10458856;28;20414;-72
2022/07/05 03:56:24;;;;;;;2.70;1.20;;;;;;;16.94;62.32;100293.06;10460335;28;20409;-72
2022/07/05 04:01:30;;;;;;;1.00;0.90;;;;;;;16.95;60.87;100299.22;10460221;28;20047;-72
2022/07/05 04:06:32;;;;;;;3.10;0.90;;;;;;;16.84;61.44;100305.97;10459828;28;20083;-72
2022/07/05 04:11:37;;;;;;;2.35;1.10;;;;;;;16.69;61.83;100320.03;10458966;28;20052;-71
2022/07/05 04:16:39;;;;;;;1.88;1.10;;;;;;;16.62;62.74;100316.84;10458648;28;20041;-72
2022/07/05 04:21:41;;;;;;;1.60;0.90;;;;;;;16.71;62.63;100322.63;10458185;28;20045;-72
2022/07/05 04:26:44;;;;;;;2.88;1.20;;;;;;;16.73;63.18;100326.91;10442198;28;20076;-72
2022/07/05 04:31:46;;;;;;;2.03;1.20;;;;;;;16.69;63.53;100328.00;10457545;28;20049;-71
2022/07/05 04:36:48;;;;;;;3.35;1.00;;;;;;;16.92;63.12;100325.97;10458260;28;20049;-72
2022/07/05 04:41:50;;;;;;;2.88;1.00;;;;;;;17.02;62.46;100333.34;10459013;28;20049;-72
2022/07/05 04:46:52;;;;;;;1.65;1.10;;;;;;;17.03;62.33;100332.41;10460138;28;20517;-72
2022/07/05 04:51:54;;;;;;;1.67;1.23;;;;;;;17.07;62.00;100346.38;10458637;28;20048;-73
2022/07/05 04:56:56;;;;;;;2.92;1.33;;;;;;;17.14;62.70;100345.97;10461789;28;20047;-71
2022/07/05 05:01:57;;;;;;;4.18;1.40;;;;;;;17.24;62.54;100353.44;10466093;28;20045;-73
2022/07/05 05:06:59;;;;;;;1.80;1.17;;;;;;;17.20;63.35;100357.22;10465673;28;20379;-72
2022/07/05 05:12:01;;;;;;;1.70;1.05;;;;;;;17.30;62.83;100353.09;10466823;28;20491;-71
2022/07/05 05:17:03;;;;;;;2.22;1.30;;;;;;;17.73;61.92;100346.28;10467593;28;20041;-73
2022/07/05 05:22:05;;;;;;;4.85;1.25;;;;;;;17.99;59.91;100344.81;10466050;28;20045;-71
2022/07/05 05:27:06;;;;;;;1.83;0.80;;;;;;;18.44;57.39;100340.41;10467202;28;20041;-71
2022/07/05 05:32:08;;;;;;;3.97;0.90;;;;;;;19.23;53.28;100342.72;10466080;28;20064;-71
2022/07/05 05:37:10;;;;;;;2.92;1.00;;;;;;;19.94;52.31;100330.22;10465381;28;20475;-71
2022/07/05 05:42:11;;;;;;;3.30;1.00;;;;;;;20.20;50.73;100344.50;10477022;22;20044;-74
2022/07/05 05:47:13;;;;;;;2.45;1.23;;;;;;;20.73;51.11;100335.53;10466957;28;20041;-74
2022/07/05 05:52:17;;;;;;;3.15;0.90;;;;;;;21.16;50.10;100335.19;10466135;28;20452;-74
2022/07/05 05:57:19;;;;;;;1.83;0.82;;;;;;;21.90;48.92;100341.44;10447615;28;20095;-75
2022/07/05 06:02:20;;;;;;;1.77;0.82;;;;;;;22.09;48.24;100338.22;10468837;28;20048;-75
2022/07/05 06:07:22;;;;;;;6.43;1.38;;;;;;;22.86;47.15;100342.16;10465261;28;20460;-75
2022/07/05 06:12:24;;;;;;;1.50;1.00;;;;;;;23.19;45.48;100347.69;10446401;28;20049;-75
2022/07/05 06:17:26;;;;;;;2.15;1.02;;;;;;;23.34;45.77;100343.81;10466059;28;20041;-74
2022/07/05 06:22:27;;;;;;;3.97;0.80;;;;;;;23.32;43.97;100351.09;10450705;28;20052;-75
2022/07/05 06:27:29;;;;;;;2.90;0.88;;;;;;;23.24;43.59;100348.16;10464627;28;20087;-75
2022/07/05 06:32:33;;;;;;;2.25;0.70;;;;;;;22.84;44.10;100362.00;10446568;28;20489;-74
2022/07/05 06:37:41;;;;;;;4.93;0.90;;;;;;;23.12;44.04;100361.59;10464726;28;20041;-74
2022/07/05 06:42:43;;;;;;;0.85;0.60;;;;;;;23.66;41.48;100360.84;10464229;28;20485;-76
2022/07/05 06:47:59;;;;;;;2.20;0.82;;;;;;;24.06;41.07;100367.47;10450370;28;20037;-76
2022/07/05 06:53:02;;;;;;;3.35;0.80;;;;;;;23.34;42.03;100368.78;10464778;28;20053;-78
2022/07/05 06:58:07;;;;;;;3.13;0.60;;;;;;;23.47;43.00;100359.75;10446038;28;20502;-74
2022/07/05 07:03:19;;;;;;;1.48;0.75;;;;;;;24.26;41.01;100364.00;10463225;28;20425;-74
2022/07/05 07:13:56;;;;;;;2.97;0.63;;;;;;;24.64;41.14;100367.97;10464337;28;20045;-76
2022/07/05 07:19:03;;;;;;;2.33;0.60;;;;;;;24.69;39.32;100357.69;10445174;28;20056;-75
2022/07/05 07:24:14;;;;;;;2.80;0.70;;;;;;;24.53;39.16;100368.06;10414035;28;20284;-75
2022/07/05 07:29:18;;;;;;;2.47;0.73;;;;;;;24.78;38.54;100362.25;10464491;28;20048;-75
2022/07/05 07:34:24;;;;;;;1.13;0.65;;;;;;;25.31;37.32;100355.91;10447413;28;20555;-75
2022/07/05 07:39:27;;;;;;;2.28;0.82;;;;;;;25.03;36.86;100352.09;10462891;28;20037;-76
2022/07/05 07:44:31;;;;;;;2.75;0.60;;;;;;;25.26;37.07;100344.72;10427355;28;20036;-75
2022/07/05 07:49:46;;;;;;;0.85;0.60;;;;;;;25.11;35.19;100347.78;10463059;28;20039;-75
2022/07/05 07:54:58;;;;;;;2.42;0.50;;;;;;;25.47;35.23;100350.03;10464668;28;20033;-75
2022/07/05 08:00:11;;;;;;;3.35;0.50;;;;;;;25.81;34.58;100345.19;10428188;28;20068;-75
2022/07/05 08:05:24;;;;;;;1.80;0.40;;;;;;;25.71;34.00;100339.75;10445489;28;20564;-75
2022/07/05 08:10:30;;;;;;;0.85;0.40;;;;;;;25.62;34.09;100349.50;10444203;28;20076;-73
2022/07/05 08:15:40;;;;;;;1.58;0.43;;;;;;;26.42;34.35;100347.63;10465147;28;20041;-74
2022/07/05 08:26:09;;;;;;;1.70;0.57;;;;;;;26.97;31.88;100345.16;10404988;28;20049;-75
2022/07/05 08:31:22;;;;;;;2.60;0.40;;;;;;;26.68;31.80;100337.13;10404760;28;20072;-74
2022/07/05 08:36:29;;;;;;;0.98;0.43;;;;;;;26.81;30.98;100339.50;10407834;28;20038;-74
2022/07/05 08:41:41;;;;;;;0.93;0.43;;;;;;;27.35;31.56;100327.13;10444518;28;20106;-76
2022/07/05 08:46:51;;;;;;;1.60;0.50;;;;;;;27.44;30.50;100330.78;10457684;28;20043;-76
2022/07/05 08:51:55;;;;;;;1.02;0.52;;;;;;;27.16;31.30;100334.31;10482803;28;20076;-74
2022/07/05 08:56:57;;;;;;;2.42;0.50;;;;;;;28.22;29.42;100325.72;10457868;28;20037;-74
2022/07/05 09:02:17;;;;;;;1.95;0.70;;;;;;;27.97;28.93;100328.19;10449171;28;20115;-74
2022/07/05 09:07:22;;;;;;;2.00;0.52;;;;;;;27.35;30.43;100324.41;10444248;28;20104;-74
2022/07/05 09:12:32;;;;;;;0.80;0.32;;;;;;;27.56;30.52;100324.19;10460909;28;20120;-73
2022/07/05 09:17:44;;;;;;;1.58;0.40;;;;;;;28.03;29.78;100316.78;10459832;28;20045;-73
2022/07/05 09:23:01;;;;;;;0.40;0.40;;;;;;;28.67;28.86;100314.78;10462069;28;20094;-74
2022/07/05 09:28:15;;;;;;;1.47;0.30;;;;;;;29.48;27.55;100314.38;10460107;28;20124;-74
2022/07/05 09:33:32;;;;;;;0.73;0.40;;;;;;;28.11;28.15;100316.88;10443523;28;20049;-74
2022/07/05 09:38:52;;;;;;;1.77;0.50;;;;;;;27.92;28.63;100312.44;10458522;28;20041;-74
2022/07/05 09:43:58;;;;;;;0.80;0.43;;;;;;;28.69;29.19;100312.78;10460984;28;20045;-74
2022/07/05 09:49:06;;;;;;;3.92;0.47;;;;;;;28.52;28.59;100316.38;10421396;28;20116;-72
2022/07/05 09:54:08;;;;;;;3.15;0.50;;;;;;;28.65;27.32;100319.50;10424569;28;20049;-74
2022/07/05 09:59:19;;;;;;;1.70;0.32;;;;;;;28.48;27.76;100307.72;10407782;28;20056;-73
2022/07/05 10:04:23;;;;;;;1.48;0.43;;;;;;;28.57;28.01;100311.34;10426724;28;20044;-74
2022/07/05 10:09:30;;;;;;;4.28;0.47;;;;;;;28.72;28.27;100306.19;10405659;28;20045;-74
2022/07/05 10:14:39;;;;;;;1.20;0.40;;;;;;;28.88;27.90;100309.84;10404244;28;20049;-72
2022/07/05 10:19:46;;;;;;;2.17;0.47;;;;;;;29.53;27.00;100308.47;10405081;28;20041;-71
2022/07/05 10:24:54;;;;;;;0.70;0.32;;;;;;;28.85;26.79;100310.16;10423683;28;20048;-73
2022/07/05 10:30:03;;;;;;;0.77;0.50;;;;;;;28.36;27.96;100317.94;10425738;28;20049;-75
2022/07/05 10:35:06;;;;;;;1.10;0.40;;;;;;;28.05;28.23;100325.56;10463624;28;20029;-72
2022/07/05 10:40:12;;;;;;;1.23;0.32;;;;;;;27.80;29.68;100321.78;10445306;28;20124;-73
2022/07/05 10:45:25;;;;;;;0.95;0.40;;;;;;;28.52;26.51;100303.69;10463695;28;20037;-74
2022/07/05 10:50:44;;;;;;;0.40;0.20;;;;;;;29.10;26.54;100316.59;10446115;28;20049;-74
2022/07/05 10:55:53;;;;;;;1.27;0.40;;;;;;;28.54;27.10;100311.66;10444929;28;20037;-74
2022/07/05 11:01:20;;;;;;;0.85;0.32;;;;;;;28.15;27.57;100310.09;10464449;28;20040;-74
2022/07/05 11:06:25;;;;;;;1.40;0.60;;;;;;;28.24;27.72;100305.63;10463199;28;20490;-74
2022/07/05 11:11:40;;;;;;;3.53;0.60;;;;;;;28.55;27.47;100311.47;10446685;28;20112;-74
2022/07/05 11:17:13;;;;;;;1.10;0.40;;;;;;;28.82;27.07;100302.38;10445512;28;20086;-73
2022/07/05 11:22:42;;;;;;;0.63;0.40;;;;;;;28.76;26.29;100302.16;10444272;28;20120;-74
2022/07/05 11:28:00;;;;;;;1.73;0.30;;;;;;;29.25;26.57;100307.84;10458979;28;20041;-74
2022/07/05 11:33:29;;;;;;;0.65;0.30;;;;;;;30.08;25.73;100295.22;10444461;28;20112;-74
2022/07/05 11:39:15;;;;;;;3.20;0.45;;;;;;;29.14;26.80;100298.19;10444717;28;20132;-75
2022/07/05 11:44:22;;;;;;;0.98;0.40;;;;;;;29.23;26.82;100304.47;10468089;22;20076;-69
2022/07/05 11:49:56;;;;;;;0.80;0.40;;;;;;;28.61;27.43;100300.03;10457292;28;20049;-70
2022/07/05 11:54:59;;;;;;;0.90;0.30;;;;;;;28.40;27.60;100310.38;10439920;28;20073;-69
2022/07/05 12:00:04;;;;;;;1.83;0.30;;;;;;;28.75;28.36;100292.34;10459244;28;20087;-69
2022/07/05 12:05:15;;;;;;;0.57;0.30;;;;;;;29.47;26.49;100280.19;10457330;28;20045;-70
2022/07/05 12:16:06;;;;;;;0.88;0.30;;;;;;;29.69;25.66;100277.91;10439028;28;20098;-69
2022/07/05 12:21:13;;;;;;;1.75;0.50;;;;;;;30.34;26.22;100264.41;10456779;28;20049;-69
2022/07/05 12:26:16;;;;;;;2.05;0.50;;;;;;;30.11;25.19;100281.34;10438926;28;20418;-69
2022/07/05 12:31:20;;;;;;;0.52;0.38;;;;;;;29.65;25.72;100280.09;10457082;28;20041;-70
2022/07/05 12:36:27;;;;;;;0.98;0.45;;;;;;;30.79;24.37;100271.16;10422369;28;20128;-69
2022/07/05 12:41:29;;;;;;;1.00;0.38;;;;;;;30.04;25.22;100276.75;10456567;28;20132;-69
2022/07/05 12:46:39;;;;;;;3.08;0.50;;;;;;;28.80;27.08;100280.03;10439164;28;20460;-69
2022/07/05 12:51:45;;;;;;;1.67;0.45;;;;;;;28.60;27.16;100274.00;10457409;28;20068;-69
2022/07/05 13:02:46;;;;;;;1.08;0.30;;;;;;;28.74;26.29;100269.03;10457537;28;20482;-69
2022/07/05 13:07:51;;;;;;;0.75;0.40;;;;;;;28.80;26.01;100265.66;10459448;28;20065;-71
2022/07/05 13:12:55;;;;;;;3.95;0.40;;;;;;;28.80;27.81;100268.38;10440492;28;20075;-69
2022/07/05 13:17:57;;;;;;;1.17;0.38;;;;;;;28.74;27.67;100267.16;10456867;28;20324;-69
2022/07/05 13:22:59;;;;;;;0.90;0.35;;;;;;;28.75;27.17;100255.31;10461815;28;20418;-69
2022/07/05 13:28:01;;;;;;;2.03;0.40;;;;;;;29.08;27.62;100252.78;10465280;28;20048;-69
2022/07/05 13:33:02;;;;;;;4.93;0.50;;;;;;;29.31;26.31;100251.22;10464767;28;20091;-69
2022/07/05 13:38:04;;;;;;;2.40;0.47;;;;;;;29.67;26.58;100236.59;10466890;28;20048;-69
2022/07/05 13:43:06;;;;;;;2.67;0.35;;;;;;;29.47;26.16;100241.44;10466119;28;20045;-69
2022/07/05 13:48:08;;;;;;;0.73;0.40;;;;;;;29.08;26.26;100250.94;10467170;28;20037;-69
2022/07/05 13:53:10;;;;;;;0.90;0.40;;;;;;;28.76;26.82;100234.53;10448368;28;20049;-69
2022/07/05 13:58:12;;;;;;;3.08;0.50;;;;;;;28.76;27.26;100246.19;10467247;28;20068;-69
2022/07/05 14:03:15;;;;;;;1.70;0.40;;;;;;;28.94;27.48;100248.81;10465081;28;20112;-70
2022/07/05 14:08:23;;;;;;;1.05;0.60;;;;;;;28.52;27.61;100257.72;10464276;28;20041;-69
2022/07/05 14:13:26;;;;;;;1.15;0.47;;;;;;;28.09;28.62;100253.16;10465915;28;20055;-70
2022/07/05 14:18:27;;;;;;;1.50;0.50;;;;;;;28.76;27.46;100237.22;10465339;28;20127;-69
2022/07/05 14:23:29;;;;;;;0.63;0.45;;;;;;;28.82;26.51;100242.88;10449634;28;20041;-70
2022/07/05 14:28:31;;;;;;;0.70;0.50;;;;;;;29.29;26.82;100231.56;10465745;28;20041;-69
2022/07/05 14:33:33;;;;;;;0.82;0.40;;;;;;;28.92;26.49;100234.63;10468132;28;20061;-71
2022/07/05 14:38:36;;;;;;;2.97;0.52;;;;;;;28.95;26.75;100228.00;10450994;28;20045;-70
2022/07/05 14:43:37;;;;;;;1.15;0.30;;;;;;;29.38;25.04;100221.59;10468146;28;20041;-69
2022/07/05 14:48:39;;;;;;;0.93;0.30;;;;;;;29.77;24.91;100224.56;10467131;28;20056;-69
2022/07/05 14:53:46;;;;;;;0.73;0.35;;;;;;;29.56;25.27;100218.78;10468423;28;20041;-70
2022/07/05 14:58:49;;;;;;;0.93;0.50;;;;;;;29.27;26.29;100203.81;10469235;28;20068;-70
2022/07/05 15:03:50;;;;;;;0.73;0.40;;;;;;;28.78;27.00;100209.03;10468472;28;20041;-69
2022/07/05 15:08:53;;;;;;;2.15;0.60;;;;;;;29.54;26.23;100204.53;10468017;28;20442;-69
2022/07/05 15:14:01;;;;;;;1.23;0.40;;;;;;;28.66;27.32;100221.13;10468002;28;20063;-69
2022/07/05 15:19:03;;;;;;;4.03;0.50;;;;;;;28.55;27.85;100210.56;10468865;28;20116;-69
2022/07/05 15:24:06;;;;;;;1.33;0.40;;;;;;;29.00;27.21;100206.75;10468475;28;20102;-69
2022/07/05 15:29:18;;;;;;;1.27;0.35;;;;;;;29.16;26.79;100204.13;10467054;28;20047;-70
2022/07/05 15:34:20;;;;;;;1.70;0.70;;;;;;;29.22;26.70;100210.72;10468273;28;20049;-70
2022/07/05 15:39:22;;;;;;;1.75;0.52;;;;;;;28.74;27.29;100204.09;10466835;28;20037;-67
2022/07/05 15:44:24;;;;;;;1.15;0.50;;;;;;;28.50;27.47;100210.22;10465356;28;20041;-69
2022/07/05 15:49:27;;;;;;;1.27;0.47;;;;;;;29.83;25.77;100213.06;10464106;28;20045;-68
2022/07/05 15:54:29;;;;;;;1.55;0.77;;;;;;;29.70;25.87;100203.72;10466695;28;20045;-68
2022/07/05 15:59:31;;;;;;;2.65;0.52;;;;;;;28.81;25.59;100192.44;10469897;28;20092;-68
2022/07/05 16:04:36;;;;;;;1.83;0.95;;;;;;;29.06;24.87;100196.13;10471499;28;20426;-69
2022/07/05 16:09:38;;;;;;;1.65;0.40;;;;;;;28.17;26.30;100202.72;10451679;28;20045;-69
2022/07/05 16:14:41;;;;;;;1.17;0.70;;;;;;;28.84;24.95;100180.47;10449058;28;20075;-69
2022/07/05 16:19:43;;;;;;;1.88;0.45;;;;;;;28.48;26.45;100185.19;10468817;28;20041;-69
2022/07/05 16:24:45;;;;;;;2.67;0.45;;;;;;;28.22;26.72;100194.13;10470326;28;20102;-69
2022/07/05 16:29:47;;;;;;;3.72;1.33;;;;;;;28.10;27.15;100187.28;10469501;28;20033;-69
2022/07/05 16:34:49;;;;;;;1.27;0.88;;;;;;;28.13;26.89;100184.28;10466452;28;20513;-69
2022/07/05 16:39:51;;;;;;;2.10;0.70;;;;;;;27.64;27.86;100178.44;10464738;28;20045;-69
2022/07/05 16:44:53;;;;;;;2.40;1.80;;;;;;;27.69;27.80;100173.44;10465654;28;20044;-69
2022/07/05 16:50:01;;;;;;;1.20;0.43;;;;;;;27.53;27.52;100179.50;10449346;28;20041;-68
2022/07/05 16:55:06;;;;;;;1.73;0.43;;;;;;;27.14;27.97;100174.41;10468213;28;20044;-69
2022/07/05 17:00:09;;;;;;;2.83;0.60;;;;;;;26.73;28.65;100174.88;10469820;28;20041;-69
2022/07/05 17:05:11;;;;;;;0.63;0.30;;;;;;;26.42;29.36;100172.44;10454713;28;20045;-69
2022/07/05 17:10:14;;;;;;;2.78;0.47;;;;;;;26.47;29.49;100174.72;10457517;28;20073;-69
2022/07/05 17:15:17;;;;;;;1.35;0.57;;;;;;;26.56;28.87;100168.44;10456866;28;20045;-69
2022/07/05 17:20:20;;;;;;;2.53;0.60;;;;;;;26.61;29.23;100169.72;10453417;28;20390;-70
2022/07/05 17:25:23;;;;;;;0.80;0.50;;;;;;;26.55;29.13;100166.75;10468732;28;20055;-70
2022/07/05 17:30:25;;;;;;;1.58;0.65;;;;;;;26.61;29.64;100175.09;10446205;28;20052;-70
2022/07/05 17:35:27;;;;;;;3.67;0.68;;;;;;;26.22;29.85;100168.09;10465193;28;20063;-69
2022/07/05 17:40:28;;;;;;;1.13;0.60;;;;;;;25.78;30.71;100170.47;10480036;22;20098;-78
2022/07/05 17:45:30;;;;;;;3.60;0.60;;;;;;;25.69;31.14;100172.13;10552979;28;20094;-78
2022/07/05 17:50:34;;;;;;;1.92;0.93;;;;;;;25.73;30.58;100168.16;10551899;28;20089;-79
2022/07/05 17:55:46;;;;;;;1.77;0.60;;;;;;;25.50;31.06;100173.00;10534276;28;20107;-77
2022/07/05 18:00:47;;;;;;;1.83;0.52;;;;;;;25.36;32.57;100184.16;10535251;28;20142;-77
2022/07/05 18:05:50;;;;;;;2.05;0.60;;;;;;;25.22;32.78;100189.94;10559088;28;20036;-79
2022/07/05 18:10:51;;;;;;;1.63;0.57;;;;;;;24.99;33.31;100205.44;10560069;28;20048;-78
2022/07/05 18:15:54;;;;;;;1.60;0.73;;;;;;;24.71;33.87;100201.66;10557167;28;20085;-80
2022/07/05 18:20:56;;;;;;;3.92;0.80;;;;;;;24.69;33.88;100204.47;10540394;28;20043;-79
2022/07/05 18:26:01;;;;;;;0.73;0.47;;;;;;;24.67;34.24;100209.97;10557923;28;20135;-79
2022/07/05 18:31:03;;;;;;;6.88;0.70;;;;;;;24.54;34.58;100214.72;10566664;28;20040;-80
2022/07/05 18:36:04;;;;;;;1.02;0.70;;;;;;;24.55;34.74;100215.56;10554410;28;20040;-80
2022/07/05 18:41:06;;;;;;;2.85;0.98;;;;;;;24.28;35.41;100222.31;10558353;28;20046;-79
2022/07/05 18:46:08;;;;;;;1.58;0.93;;;;;;;24.09;35.43;100220.38;10559888;28;20127;-79
2022/07/05 18:51:10;;;;;;;2.85;1.13;;;;;;;23.96;35.93;100221.56;10536977;28;20052;-79
2022/07/05 18:56:12;;;;;;;2.03;1.00;;;;;;;24.07;36.02;100226.84;10537456;28;20047;-79
2022/07/05 19:01:25;;;;;;;0.80;0.70;;;;;;;23.94;36.43;100231.56;10543585;28;20068;-78
2022/07/05 19:17:08;;;;;;;4.85;1.00;;;;;;;23.57;37.91;100242.66;10534714;28;20039;-78
2022/07/05 19:22:11;;;;;;;3.33;0.90;;;;;;;23.40;38.55;100244.03;10560001;28;20448;-78
2022/07/05 19:27:13;;;;;;;2.38;1.15;;;;;;;23.36;38.14;100247.94;10550819;28;20063;-79
2022/07/05 19:32:15;;;;;;;1.65;0.90;;;;;;;23.28;38.04;100258.44;10555716;28;20078;-79
2022/07/05 19:37:17;;;;;;;3.53;0.95;;;;;;;23.16;38.34;100261.16;10545449;28;20062;-78
2022/07/05 19:42:19;;;;;;;1.90;0.88;;;;;;;23.05;38.74;100265.66;10540458;28;20048;-79
2022/07/05 19:47:21;;;;;;;2.50;0.90;;;;;;;22.83;38.99;100272.69;10561010;28;20131;-79
2022/07/05 19:52:22;;;;;;;1.88;1.10;;;;;;;22.74;39.56;100285.97;10560382;28;20110;-79
2022/07/05 19:57:24;;;;;;;1.98;0.70;;;;;;;22.59;39.85;100296.06;10542775;28;20043;-80
2022/07/05 20:02:26;;;;;;;0.85;0.60;;;;;;;22.59;39.84;100290.72;10536559;28;20048;-80
2022/07/05 20:07:27;;;;;;;2.78;0.75;;;;;;;22.34;40.25;100292.59;10536937;28;20058;-80
2022/07/05 20:12:29;;;;;;;3.38;0.93;;;;;;;22.32;40.67;100297.22;10541145;28;20055;-80
2022/07/05 20:17:31;;;;;;;0.82;0.60;;;;;;;22.44;40.65;100308.81;10557583;28;20101;-80
2022/07/05 20:22:33;;;;;;;2.05;0.80;;;;;;;22.28;41.11;100305.63;10540674;28;20044;-80
2022/07/05 20:27:34;;;;;;;3.72;0.90;;;;;;;22.03;41.70;100310.09;10561007;28;20040;-80
2022/07/05 20:32:37;;;;;;;0.98;0.63;;;;;;;22.17;41.19;100315.31;10555818;28;20048;-77
2022/07/05 20:37:39;;;;;;;2.28;0.85;;;;;;;22.27;41.35;100328.88;10552256;28;20058;-79
2022/07/05 20:42:40;;;;;;;1.23;0.88;;;;;;;22.14;41.36;100333.44;10576602;28;20056;-80
2022/07/05 20:47:42;;;;;;;2.38;0.68;;;;;;;22.04;41.68;100333.22;10581072;28;20111;-80
2022/07/05 20:52:44;;;;;;;1.98;1.25;;;;;;;21.79;42.56;100328.00;10581014;28;20053;-80
2022/07/05 20:57:47;;;;;;;3.55;0.85;;;;;;;21.89;42.55;100334.38;10562558;28;20039;-79
2022/07/05 21:02:48;;;;;;;2.08;0.90;;;;;;;21.70;42.43;100331.38;10583995;28;20040;-80
2022/07/05 21:07:50;;;;;;;3.35;0.85;;;;;;;21.79;42.60;100338.72;10550976;28;20040;-79
2022/07/05 21:12:52;;;;;;;2.05;0.80;;;;;;;21.75;43.04;100335.41;10556540;28;20040;-80
2022/07/05 21:17:54;;;;;;;1.27;0.70;;;;;;;21.74;42.98;100356.94;10529430;28;20051;-79
2022/07/05 21:23:04;;;;;;;2.13;0.80;;;;;;;21.78;43.25;100361.94;10533054;28;20397;-79
2022/07/05 21:28:05;;;;;;;2.67;0.70;;;;;;;21.58;43.37;100360.69;10531883;28;20066;-80
2022/07/05 21:33:07;;;;;;;3.20;0.88;;;;;;;21.40;43.85;100349.50;10550422;28;20044;-79
2022/07/05 21:38:09;;;;;;;1.90;0.85;;;;;;;21.53;43.84;100352.16;10548849;28;20468;-80
2022/07/05 21:43:11;;;;;;;2.70;0.90;;;;;;;21.40;43.70;100348.66;10532884;28;20408;-78
2022/07/05 21:48:12;;;;;;;2.03;0.80;;;;;;;21.44;43.79;100357.31;10538879;28;20078;-78
2022/07/05 21:53:14;;;;;;;2.00;0.90;;;;;;;21.51;43.68;100359.44;10560769;28;20071;-78
2022/07/05 21:58:16;;;;;;;1.90;0.80;;;;;;;21.39;44.00;100371.03;10560637;28;20046;-79
2022/07/05 22:04:24;;;;;;;1.17;0.80;;;;;;;21.27;44.01;100356.66;10565005;28;20044;-79
2022/07/05 22:08:54;;;;;;;1.17;0.95;;;;;;;20.99;44.97;100352.44;10555920;28;20066;-79
2022/07/05 22:13:56;;;;;;;1.48;0.95;;;;;;;21.12;44.72;100341.72;10546859;28;20486;-79
2022/07/05 22:18:57;;;;;;;1.52;0.90;;;;;;;20.86;45.09;100346.22;10546701;28;20115;-79
2022/07/05 22:23:59;;;;;;;1.33;0.90;;;;;;;20.67;45.77;100351.97;10545132;28;20066;-79
2022/07/05 22:29:01;;;;;;;1.80;0.90;;;;;;;20.78;45.90;100349.44;10553349;28;20070;-79
2022/07/05 22:34:02;;;;;;;2.95;0.82;;;;;;;20.90;45.68;100358.41;10553475;28;20055;-79
2022/07/05 22:39:05;;;;;;;2.20;0.77;;;;;;;20.91;45.45;100389.50;10549631;28;20116;-78
2022/07/05 22:44:06;;;;;;;1.48;0.80;;;;;;;20.72;45.67;100437.13;10553738;28;20052;-78
2022/07/05 22:49:08;;;;;;;5.70;1.13;;;;;;;20.25;46.57;100460.66;10556025;28;20040;-78
2022/07/05 22:54:10;;;;;;;12.25;1.27;;;;;;;19.67;51.16;100472.41;10554596;28;20066;-78
2022/07/05 22:59:11;;;;;;;4.78;1.25;;;;;;;18.45;58.87;100483.19;10532696;28;20166;-77
2022/07/05 23:04:13;;;;;;;3.42;1.27;;;;;;;17.65;63.89;100492.91;10548855;28;20079;-78
2022/07/05 23:09:15;;;;;;;3.10;1.17;;;;;;;17.43;66.42;100504.78;10528083;28;20044;-77
2022/07/05 23:14:16;;;;;;;4.85;1.73;;;;;;;16.76;71.40;100532.97;10530029;28;20040;-80
2022/07/05 23:19:18;;;;;;;1.83;1.30;;;;;;;16.61;75.83;100537.22;10546141;28;20047;-77
2022/07/05 23:29:40;;;;;;;4.15;1.52;;;;;;;16.21;81.91;100543.56;10548852;28;20048;-78
2022/07/05 23:34:42;;;;;;;1.35;0.93;;;;;;;16.55;78.30;100550.78;10552629;28;20036;-78
2022/07/05 23:39:45;;;;;;;1.23;1.00;;;;;;;16.45;81.39;100555.66;10559366;28;20040;-78
2022/07/05 23:44:47;;;;;;;2.95;1.50;;;;;;;16.46;80.62;100559.16;10572803;22;20040;-81
2022/07/05 23:49:49;;;;;;;3.20;1.30;;;;;;;16.34;83.12;100555.31;10580990;28;20044;-81
2022/07/05 23:54:50;;;;;;;3.38;1.52;;;;;;;16.37;86.95;100561.31;10581731;28;20048;-81
2022/07/05 23:59:52;;;;;;;1.63;1.50;;;;;;;16.49;84.73;100554.59;10563545;28;20039;-81
